createdAt,value
2023-01-30T00:32:39.272Z,2.54
2023-01-30T00:33:39.289Z,2.82
2023-01-30T00:34:39.336Z,2.94
2023-01-30T00:35:39.385Z,2.89
2023-01-30T00:36:39.409Z,2.83
2023-01-30T00:37:39.485Z,3.12
2023-01-30T00:38:39.524Z,2.90
2023-01-30T00:39:39.522Z,2.65
2023-01-30T00:40:39.577Z,2.63
2023-01-30T00:41:39.629Z,3.22
2023-01-30T00:42:39.639Z,2.69
2023-01-30T00:43:39.694Z,1.71
2023-01-30T00:44:39.761Z,2.27
2023-01-30T00:45:39.784Z,2.50
2023-01-30T00:46:39.792Z,2.24
2023-01-30T00:47:39.816Z,2.71
2023-01-30T00:48:39.879Z,2.83
2023-01-30T00:49:39.898Z,2.34
2023-01-30T00:50:39.929Z,2.47
2023-01-30T00:51:40.003Z,2.54
2023-01-30T00:52:40.010Z,2.12
2023-01-30T00:53:40.023Z,2.46
2023-01-30T00:54:40.077Z,2.57
2023-01-30T00:55:40.130Z,1.85
2023-01-30T00:56:40.136Z,2.77
2023-01-30T00:57:40.148Z,2.54
2023-01-30T00:58:40.184Z,3.00
2023-01-30T00:59:40.263Z,2.70
2023-01-30T01:00:40.284Z,2.06
2023-01-30T01:01:40.297Z,2.61
2023-01-30T01:02:40.345Z,2.79
2023-01-30T01:03:40.376Z,2.79
2023-01-30T01:04:40.433Z,2.38
2023-01-30T01:05:40.441Z,2.18
2023-01-30T01:06:40.466Z,2.25
2023-01-30T01:07:40.460Z,2.86
2023-01-30T01:08:40.518Z,3.06
2023-01-30T01:09:40.533Z,2.57
2023-01-30T01:10:40.588Z,2.62
2023-01-30T01:11:40.633Z,2.46
2023-01-30T01:12:40.640Z,2.27
2023-01-30T01:13:40.677Z,2.48
2023-01-30T01:14:40.751Z,2.38
2023-01-30T01:15:40.729Z,2.13
2023-01-30T01:16:40.809Z,2.84
2023-01-30T01:17:40.774Z,2.11
2023-01-30T01:18:40.797Z,2.15
2023-01-30T01:19:40.825Z,2.62
2023-01-30T01:20:40.842Z,2.37
2023-01-30T01:21:40.905Z,2.35
2023-01-30T01:22:40.916Z,2.33
2023-01-30T01:23:40.930Z,2.62
2023-01-30T01:24:40.936Z,2.76
2023-01-30T01:25:40.980Z,2.11
2023-01-30T01:26:41.020Z,2.63
2023-01-30T01:27:41.022Z,2.52
2023-01-30T01:28:41.055Z,2.93
2023-01-30T01:29:41.067Z,1.73
2023-01-30T01:30:41.125Z,2.38
2023-01-30T01:31:41.241Z,2.20
2023-01-30T01:32:41.188Z,1.78
2023-01-30T01:33:41.179Z,2.43
2023-01-30T01:34:41.196Z,2.44
2023-01-30T01:35:41.291Z,1.97
2023-01-30T01:36:56.635Z,2.19
2023-01-30T01:37:42.239Z,2.50
2023-01-30T01:38:41.215Z,1.86
2023-01-30T01:39:41.175Z,2.24
2023-01-30T01:40:41.165Z,2.01
2023-01-30T01:41:41.131Z,2.23
2023-01-30T01:42:41.082Z,2.33
2023-01-30T01:43:41.048Z,2.41
2023-01-30T01:44:41.049Z,2.06
2023-01-30T01:45:41.029Z,2.36
2023-01-30T01:46:40.972Z,2.43
2023-01-30T01:47:40.977Z,2.42
2023-01-30T01:48:40.941Z,2.22
2023-01-30T01:49:40.879Z,2.21
2023-01-30T01:50:40.942Z,2.15
2023-01-30T01:51:40.943Z,2.23
2023-01-30T01:52:40.863Z,2.34
2023-01-30T01:53:40.762Z,2.72
2023-01-30T01:54:40.769Z,2.09
2023-01-30T01:55:40.793Z,2.47
2023-01-30T01:56:40.717Z,2.56
2023-01-30T01:57:40.672Z,2.50
2023-01-30T01:58:40.692Z,2.25
2023-01-30T01:59:40.596Z,2.45
2023-01-30T02:00:40.556Z,2.26
2023-01-30T02:01:40.482Z,2.39
2023-01-30T02:02:40.547Z,2.43
2023-01-30T02:03:40.401Z,1.97
2023-01-30T02:04:40.402Z,2.01
2023-01-30T02:05:40.367Z,2.07
2023-01-30T02:06:40.308Z,1.98
2023-01-30T02:07:40.276Z,2.14
2023-01-30T02:08:40.245Z,1.93
2023-01-30T02:09:40.191Z,1.95
2023-01-30T02:10:40.188Z,2.00
2023-01-30T02:11:40.160Z,2.55
2023-01-30T02:12:40.110Z,2.07
2023-01-30T02:13:40.074Z,2.21
2023-01-30T02:14:40.049Z,2.43
2023-01-30T02:15:40.001Z,2.31
2023-01-30T02:16:39.989Z,2.42
2023-01-30T02:17:40.029Z,2.34
2023-01-30T02:18:39.934Z,1.95
2023-01-30T02:19:39.962Z,2.35
2023-01-30T02:20:39.895Z,2.22
2023-01-30T02:21:39.878Z,2.17
2023-01-30T02:22:39.861Z,2.26
2023-01-30T02:23:39.803Z,2.23
2023-01-30T02:24:39.786Z,1.92
2023-01-30T02:25:39.786Z,1.74
2023-01-30T02:26:39.748Z,2.11
2023-01-30T02:27:39.706Z,2.06
2023-01-30T02:28:39.663Z,1.97
2023-01-30T02:29:39.713Z,1.98
2023-01-30T02:30:39.752Z,2.02
2023-01-30T02:31:39.690Z,2.07
2023-01-30T02:32:39.560Z,1.92
2023-01-30T02:33:39.553Z,2.08
2023-01-30T02:34:39.529Z,2.02
2023-01-30T02:35:39.478Z,2.11
2023-01-30T02:36:39.480Z,2.54
2023-01-30T02:37:39.450Z,2.24
2023-01-30T02:38:39.395Z,2.04
2023-01-30T02:39:39.383Z,2.19
2023-01-30T02:40:39.380Z,1.96
2023-01-30T02:41:39.367Z,1.75
2023-01-30T02:42:39.290Z,1.76
2023-01-30T02:43:39.277Z,2.21
2023-01-30T02:44:39.281Z,1.93
2023-01-30T02:45:39.247Z,1.63
2023-01-30T02:46:39.199Z,1.74
2023-01-30T02:47:39.203Z,1.36
2023-01-30T02:48:39.145Z,1.49
2023-01-30T02:49:39.125Z,1.86
2023-01-30T02:50:39.125Z,1.74
2023-01-30T02:51:39.074Z,1.65
2023-01-30T02:52:39.023Z,1.19
2023-01-30T02:53:38.985Z,1.70
2023-01-30T02:54:38.982Z,1.76
2023-01-30T02:55:38.947Z,1.67
2023-01-30T02:56:38.956Z,1.65
2023-01-30T02:57:38.864Z,1.53
2023-01-30T02:58:38.872Z,1.52
2023-01-30T02:59:38.811Z,1.68
2023-01-30T03:00:38.770Z,1.69
2023-01-30T03:01:38.852Z,1.40
2023-01-30T03:02:38.816Z,1.66
2023-01-30T03:03:38.708Z,1.46
2023-01-30T03:04:38.704Z,1.24
2023-01-30T03:05:38.656Z,1.52
2023-01-30T03:06:38.669Z,1.58
2023-01-30T03:07:38.613Z,1.48
2023-01-30T03:08:38.599Z,1.32
2023-01-30T03:09:38.565Z,1.07
2023-01-30T03:10:38.549Z,1.39
2023-01-30T03:11:38.543Z,0.89
2023-01-30T03:12:38.483Z,1.24
2023-01-30T03:13:38.453Z,1.27
2023-01-30T03:14:38.456Z,1.13
2023-01-30T03:15:38.414Z,1.53
2023-01-30T03:16:38.410Z,0.99
2023-01-30T03:17:38.373Z,1.58
2023-01-30T03:18:38.338Z,1.27
2023-01-30T03:19:38.286Z,1.64
2023-01-30T03:20:38.282Z,1.77
2023-01-30T03:21:38.247Z,1.25
2023-01-30T03:22:38.235Z,0.90
2023-01-30T03:23:38.204Z,1.19
2023-01-30T03:24:38.187Z,1.34
2023-01-30T03:25:38.156Z,1.41
2023-01-30T03:26:38.130Z,1.45
2023-01-30T03:27:38.119Z,0.86
2023-01-30T03:28:38.068Z,1.19
2023-01-30T03:29:38.034Z,0.94
2023-01-30T03:30:38.015Z,1.24
2023-01-30T03:31:38.102Z,1.03
2023-01-30T03:32:38.000Z,1.05
2023-01-30T03:33:37.968Z,1.10
2023-01-30T03:34:37.912Z,0.95
2023-01-30T03:35:37.936Z,1.21
2023-01-30T03:36:37.871Z,0.77
2023-01-30T03:37:37.913Z,1.32
2023-01-30T03:38:37.826Z,1.08
2023-01-30T03:39:37.788Z,1.21
2023-01-30T03:40:37.754Z,1.11
2023-01-30T03:41:37.743Z,1.29
2023-01-30T03:42:37.754Z,0.96
2023-01-30T03:43:37.726Z,1.27
2023-01-30T03:44:37.725Z,1.21
2023-01-30T03:45:37.645Z,1.30
2023-01-30T03:46:37.644Z,1.38
2023-01-30T03:47:37.646Z,1.08
2023-01-30T03:48:37.606Z,1.13
2023-01-30T03:49:37.542Z,0.89
2023-01-30T03:50:37.551Z,1.09
2023-01-30T03:51:37.500Z,1.11
2023-01-30T03:52:37.504Z,0.94
2023-01-30T03:53:37.470Z,1.16
2023-01-30T03:54:37.424Z,0.87
2023-01-30T03:55:37.393Z,1.06
2023-01-30T03:56:37.390Z,0.98
2023-01-30T03:57:37.393Z,1.03
2023-01-30T03:58:37.338Z,1.21
2023-01-30T03:59:37.315Z,1.19
2023-01-30T04:00:37.275Z,1.07
2023-01-30T04:01:37.295Z,1.08
2023-01-30T04:02:37.284Z,1.01
2023-01-30T04:03:37.227Z,1.01
2023-01-30T04:04:37.177Z,1.00
2023-01-30T04:05:37.177Z,1.32
2023-01-30T04:06:37.193Z,0.81
2023-01-30T04:07:37.162Z,1.15
2023-01-30T04:08:37.105Z,0.98
2023-01-30T04:09:37.056Z,0.90
2023-01-30T04:10:37.066Z,1.01
2023-01-30T04:11:37.034Z,1.31
2023-01-30T04:12:37.081Z,0.69
2023-01-30T04:13:36.993Z,0.87
2023-01-30T04:14:36.955Z,0.97
2023-01-30T04:15:36.940Z,1.00
2023-01-30T04:16:36.998Z,1.32
2023-01-30T04:17:36.911Z,0.98
2023-01-30T04:18:36.910Z,1.18
2023-01-30T04:19:36.861Z,1.45
2023-01-30T04:20:36.863Z,1.24
2023-01-30T04:21:36.827Z,1.08
2023-01-30T04:22:36.842Z,1.09
2023-01-30T04:23:36.797Z,0.82
2023-01-30T04:24:36.768Z,1.24
2023-01-30T04:25:36.756Z,1.16
2023-01-30T04:26:36.783Z,1.08
2023-01-30T04:27:36.729Z,0.98
2023-01-30T04:28:36.693Z,0.95
2023-01-30T04:29:36.639Z,1.12
2023-01-30T04:30:36.668Z,1.05
2023-01-30T04:31:36.607Z,1.25
2023-01-30T04:32:36.563Z,0.89
2023-01-30T04:33:36.550Z,0.76
2023-01-30T04:34:36.504Z,0.81
2023-01-30T04:35:36.503Z,1.26
2023-01-30T04:36:36.453Z,0.60
2023-01-30T04:37:36.416Z,1.12
2023-01-30T04:38:36.422Z,1.15
2023-01-30T04:39:36.358Z,1.01
2023-01-30T04:40:36.340Z,1.38
2023-01-30T04:41:36.313Z,1.09
2023-01-30T04:42:36.286Z,1.01
2023-01-30T04:43:36.284Z,0.87
2023-01-30T04:44:36.247Z,0.95
2023-01-30T04:45:36.212Z,0.99
2023-01-30T04:46:36.209Z,1.30
2023-01-30T04:47:36.261Z,1.01
2023-01-30T04:48:36.167Z,0.86
2023-01-30T04:49:36.134Z,0.94
2023-01-30T04:50:36.128Z,0.92
2023-01-30T04:51:36.097Z,1.00
2023-01-30T04:52:36.630Z,1.29
2023-01-30T04:53:36.057Z,1.06
2023-01-30T04:54:36.020Z,0.99
2023-01-30T04:55:35.997Z,1.27
2023-01-30T04:56:35.985Z,1.15
2023-01-30T04:57:35.972Z,0.99
2023-01-30T04:58:35.975Z,1.08
2023-01-30T04:59:35.941Z,1.09
2023-01-30T05:00:35.930Z,1.33
2023-01-30T05:01:35.925Z,0.91
2023-01-30T05:02:35.893Z,1.32
2023-01-30T05:03:35.868Z,1.00
2023-01-30T05:04:35.902Z,1.35
2023-01-30T05:05:35.822Z,1.39
2023-01-30T05:06:35.837Z,1.86
2023-01-30T05:07:35.799Z,1.15
2023-01-30T05:08:35.808Z,1.40
2023-01-30T05:09:35.750Z,1.56
2023-01-30T05:10:35.745Z,1.45
2023-01-30T05:11:35.736Z,1.63
2023-01-30T05:12:35.745Z,1.92
2023-01-30T05:13:35.714Z,2.17
2023-01-30T05:14:35.670Z,1.97
2023-01-30T05:15:35.675Z,3.15
2023-01-30T05:16:35.648Z,3.22
2023-01-30T05:17:35.634Z,2.56
2023-01-30T05:18:35.595Z,2.56
2023-01-30T05:19:35.614Z,3.06
2023-01-30T05:20:35.553Z,2.90
2023-01-30T05:21:35.564Z,3.12
2023-01-30T05:22:35.500Z,2.78
2023-01-30T05:23:35.492Z,2.22
2023-01-30T05:24:35.487Z,1.92
2023-01-30T05:25:35.438Z,2.07
2023-01-30T05:26:35.458Z,2.56
2023-01-30T05:31:35.879Z,1.63
2023-01-30T05:37:35.836Z,2.33
2023-01-30T05:41:35.829Z,2.13
2023-01-30T05:56:35.823Z,2.42
2023-01-30T05:58:35.283Z,2.20
2023-01-30T05:59:36.828Z,1.56
2023-01-30T06:00:36.252Z,2.21
2023-01-30T06:01:35.200Z,2.19
2023-01-30T06:02:35.273Z,2.55
2023-01-30T06:03:35.294Z,2.96
2023-01-30T06:04:35.212Z,2.81
2023-01-30T06:05:35.839Z,2.84
2023-01-30T06:06:35.341Z,2.33
2023-01-30T06:07:35.290Z,3.11
2023-01-30T06:08:35.235Z,2.44
2023-01-30T06:09:35.070Z,2.99
2023-01-30T06:10:35.151Z,2.95
2023-01-30T06:11:35.164Z,2.80
2023-01-30T06:12:35.264Z,2.43
2023-01-30T06:13:35.246Z,2.58
2023-01-30T06:14:35.335Z,2.76
2023-01-30T06:15:35.343Z,3.27
2023-01-30T06:16:35.416Z,3.10
2023-01-30T06:17:35.451Z,2.31
2023-01-30T06:18:35.495Z,2.45
2023-01-30T06:19:35.570Z,2.71
2023-01-30T06:20:36.352Z,95.06
2023-01-30T06:21:35.602Z,55.91
2023-01-30T06:22:35.560Z,35.46
2023-01-30T06:23:35.543Z,138.22
2023-01-30T06:24:35.534Z,79.33
2023-01-30T06:25:35.522Z,77.92
2023-01-30T06:26:35.509Z,96.82
2023-01-30T06:27:35.503Z,78.03
2023-01-30T06:28:35.483Z,70.61
2023-01-30T06:29:35.474Z,55.75
2023-01-30T06:30:35.520Z,54.97
2023-01-30T06:31:35.469Z,22.40
2023-01-30T06:32:35.397Z,17.24
2023-01-30T06:33:35.452Z,9.55
2023-01-30T06:34:35.561Z,10.41
2023-01-30T06:35:35.464Z,7.48
2023-01-30T06:36:35.495Z,8.68
2023-01-30T06:37:35.393Z,7.81
2023-01-30T06:38:35.408Z,7.01
2023-01-30T06:39:35.381Z,8.04
2023-01-30T06:40:35.419Z,5.89
2023-01-30T06:41:35.472Z,6.55
2023-01-30T06:42:35.355Z,3.97
2023-01-30T06:43:35.469Z,4.53
2023-01-30T06:44:35.378Z,4.33
2023-01-30T06:45:35.395Z,4.68
2023-01-30T06:46:35.315Z,4.09
2023-01-30T06:47:36.152Z,4.09
2023-01-30T06:48:35.930Z,3.24
2023-01-30T06:49:35.647Z,4.51
2023-01-30T06:50:35.245Z,3.04
2023-01-30T06:51:35.517Z,2.57
2023-01-30T06:52:35.225Z,4.81
2023-01-30T06:53:35.171Z,3.14
2023-01-30T06:54:35.897Z,2.64
2023-01-30T06:55:35.183Z,4.00
2023-01-30T06:56:35.144Z,3.01
2023-01-30T06:57:35.162Z,4.75
2023-01-30T06:58:35.072Z,4.16
2023-01-30T06:59:35.055Z,3.89
2023-01-30T07:00:35.312Z,3.88
2023-01-30T07:01:35.161Z,3.60
2023-01-30T07:02:35.050Z,3.59
2023-01-30T07:03:34.932Z,4.18
2023-01-30T07:04:35.129Z,3.29
2023-01-30T07:05:34.891Z,3.98
2023-01-30T07:06:35.477Z,3.40
2023-01-30T07:07:34.851Z,3.24
2023-01-30T07:08:35.882Z,4.02
2023-01-30T07:09:35.090Z,3.98
2023-01-30T07:10:35.336Z,3.48
2023-01-30T07:11:34.805Z,3.69
2023-01-30T07:12:34.775Z,3.49
2023-01-30T07:13:34.790Z,3.38
2023-01-30T07:14:34.752Z,3.63
2023-01-30T07:15:34.722Z,2.80
2023-01-30T07:16:34.724Z,2.82
2023-01-30T07:17:34.718Z,2.44
2023-01-30T07:18:34.630Z,2.23
2023-01-30T07:19:34.598Z,2.37
2023-01-30T07:20:34.622Z,2.06
2023-01-30T07:21:34.651Z,2.41
2023-01-30T07:22:34.539Z,2.14
2023-01-30T07:23:34.503Z,2.83
2023-01-30T07:24:34.530Z,2.96
2023-01-30T07:25:34.460Z,2.04
2023-01-30T07:26:34.501Z,2.92
2023-01-30T07:27:34.544Z,2.89
2023-01-30T07:28:35.480Z,3.43
2023-01-30T07:29:34.387Z,2.82
2023-01-30T07:30:34.411Z,2.73
2023-01-30T07:31:34.293Z,3.55
2023-01-30T07:32:34.387Z,3.52
2023-01-30T07:33:34.253Z,3.53
2023-01-30T07:34:34.188Z,3.30
2023-01-30T07:35:34.221Z,2.85
2023-01-30T07:36:35.857Z,2.38
2023-01-30T07:37:34.177Z,1.85
2023-01-30T07:38:34.840Z,2.80
2023-01-30T07:39:34.086Z,2.64
2023-01-30T07:40:34.053Z,2.55
2023-01-30T07:41:34.246Z,2.24
2023-01-30T07:42:34.121Z,3.78
2023-01-30T07:43:34.490Z,4.26
2023-01-30T07:44:34.024Z,1.98
2023-01-30T07:45:33.889Z,3.52
2023-01-30T07:46:33.953Z,3.39
2023-01-30T07:47:33.867Z,4.02
2023-01-30T07:48:34.054Z,2.72
2023-01-30T07:49:33.804Z,2.25
2023-01-30T07:50:33.898Z,2.55
2023-01-30T07:51:34.027Z,2.24
2023-01-30T07:52:33.706Z,3.39
2023-01-30T07:53:33.701Z,2.25
2023-01-30T07:54:33.648Z,2.14
2023-01-30T07:55:33.809Z,2.90
2023-01-30T07:56:33.576Z,2.40
2023-01-30T07:57:33.542Z,3.02
2023-01-30T07:58:33.527Z,3.23
2023-01-30T07:59:33.542Z,1.90
2023-01-30T08:00:33.461Z,3.34
2023-01-30T08:01:33.727Z,3.45
2023-01-30T08:02:33.672Z,3.52
2023-01-30T08:03:33.369Z,3.71
2023-01-30T08:04:33.404Z,4.04
2023-01-30T08:05:33.359Z,3.05
2023-01-30T08:06:33.346Z,3.18
2023-01-30T08:07:33.279Z,4.08
2023-01-30T08:08:33.251Z,3.85
2023-01-30T08:09:33.301Z,4.11
2023-01-30T08:10:33.263Z,3.87
2023-01-30T08:11:33.201Z,3.66
2023-01-30T08:12:33.141Z,3.46
2023-01-30T08:13:33.149Z,3.19
2023-01-30T08:14:33.140Z,2.52
2023-01-30T08:15:33.086Z,3.80
2023-01-30T08:16:33.038Z,2.58
2023-01-30T08:17:33.345Z,3.63
2023-01-30T08:18:33.009Z,2.96
2023-01-30T08:19:33.116Z,3.48
2023-01-30T08:20:32.915Z,3.76
2023-01-30T08:21:32.878Z,3.91
2023-01-30T08:22:33.459Z,4.06
2023-01-30T08:23:32.980Z,3.07
2023-01-30T08:24:32.881Z,2.25
2023-01-30T08:25:32.807Z,3.83
2023-01-30T08:26:32.846Z,3.65
2023-01-30T08:27:33.071Z,3.25
2023-01-30T08:28:32.702Z,3.31
2023-01-30T08:29:32.774Z,3.35
2023-01-30T08:30:32.750Z,3.31
2023-01-30T08:31:35.417Z,3.12
2023-01-30T08:32:32.632Z,2.86
2023-01-30T08:33:32.663Z,3.34
2023-01-30T08:34:32.591Z,1.97
2023-01-30T08:35:32.590Z,3.57
2023-01-30T08:36:33.426Z,2.99
2023-01-30T08:37:32.755Z,3.12
2023-01-30T08:38:36.258Z,2.10
2023-01-30T08:39:36.409Z,2.67
2023-01-30T08:40:34.231Z,3.53
2023-01-30T08:41:32.675Z,3.23
2023-01-30T08:42:32.337Z,3.76
2023-01-30T08:43:32.439Z,3.48
2023-01-30T08:44:32.260Z,4.07
2023-01-30T08:45:32.254Z,4.92
2023-01-30T08:46:32.218Z,2.72
2023-01-30T08:47:32.268Z,3.34
2023-01-30T08:48:47.437Z,3.64
2023-01-30T08:49:33.357Z,2.83
2023-01-30T08:50:32.223Z,3.59
2023-01-30T08:51:32.136Z,3.18
2023-01-30T08:52:32.041Z,3.75
2023-01-30T08:53:32.001Z,2.90
2023-01-30T08:54:33.356Z,3.71
2023-01-30T08:55:31.951Z,2.96
2023-01-30T08:56:31.912Z,4.09
2023-01-30T08:57:31.885Z,3.99
2023-01-30T08:58:31.871Z,2.94
2023-01-30T08:59:31.838Z,4.16
2023-01-30T09:00:31.836Z,4.95
2023-01-30T09:01:31.795Z,4.72
2023-01-30T09:02:31.829Z,4.62
2023-01-30T09:03:31.757Z,4.22
2023-01-30T09:04:31.662Z,3.86
2023-01-30T09:05:31.614Z,2.94
2023-01-30T09:06:31.612Z,2.84
2023-01-30T09:07:31.626Z,4.14
2023-01-30T09:08:31.526Z,2.76
2023-01-30T09:09:31.535Z,2.30
2023-01-30T09:10:31.499Z,3.16
2023-01-30T09:11:31.479Z,3.83
2023-01-30T09:12:31.452Z,2.63
2023-01-30T09:13:31.415Z,2.76
2023-01-30T09:14:31.360Z,2.38
2023-01-30T09:15:31.357Z,3.34
2023-01-30T09:16:31.343Z,3.37
2023-01-30T09:17:31.275Z,2.99
2023-01-30T09:18:31.250Z,3.32
2023-01-30T09:19:31.889Z,3.95
2023-01-30T09:20:31.199Z,4.34
2023-01-30T09:21:31.151Z,3.52
2023-01-30T09:22:31.106Z,3.36
2023-01-30T09:23:31.106Z,3.80
2023-01-30T09:24:31.896Z,3.29
2023-01-30T09:25:31.021Z,4.11
2023-01-30T09:26:30.988Z,3.37
2023-01-30T09:27:30.938Z,2.80
2023-01-30T09:28:30.932Z,4.08
2023-01-30T09:29:30.899Z,4.22
2023-01-30T09:30:30.945Z,2.70
2023-01-30T09:31:31.024Z,3.43
2023-01-30T09:32:30.747Z,3.33
2023-01-30T09:33:30.764Z,2.82
2023-01-30T09:34:31.002Z,3.89
2023-01-30T09:35:30.685Z,3.25
2023-01-30T09:36:30.628Z,3.10
2023-01-30T09:37:30.794Z,3.00
2023-01-30T09:38:30.604Z,3.61
2023-01-30T09:39:30.640Z,2.93
2023-01-30T09:40:37.446Z,2.98
2023-01-30T09:41:30.467Z,3.53
2023-01-30T09:42:30.507Z,3.43
2023-01-30T09:43:30.426Z,3.02
2023-01-30T09:44:30.377Z,2.91
2023-01-30T09:45:30.319Z,2.97
2023-01-30T09:46:30.294Z,3.56
2023-01-30T09:47:30.255Z,3.79
2023-01-30T09:48:30.342Z,3.59
2023-01-30T09:49:31.234Z,3.47
2023-01-30T09:50:32.116Z,3.45
2023-01-30T09:51:30.112Z,3.64
2023-01-30T09:52:30.149Z,5.37
2023-01-30T09:53:30.016Z,3.98
2023-01-30T09:54:30.325Z,4.03
2023-01-30T09:55:29.947Z,5.25
2023-01-30T09:56:29.906Z,5.46
2023-01-30T09:57:29.883Z,5.74
2023-01-30T09:58:29.844Z,4.25
2023-01-30T09:59:29.814Z,3.66
2023-01-30T10:00:29.754Z,5.89
2023-01-30T10:01:29.705Z,4.31
2023-01-30T10:02:29.663Z,4.64
2023-01-30T10:03:29.738Z,4.31
2023-01-30T10:04:29.647Z,5.49
2023-01-30T10:05:29.577Z,6.66
2023-01-30T10:06:30.403Z,5.67
2023-01-30T10:07:29.512Z,4.91
2023-01-30T10:08:29.468Z,6.56
2023-01-30T10:09:29.402Z,5.18
2023-01-30T10:10:29.373Z,7.12
2023-01-30T10:11:29.320Z,7.10
2023-01-30T10:12:29.287Z,6.13
2023-01-30T10:13:29.264Z,7.39
2023-01-30T10:14:29.223Z,6.78
2023-01-30T10:15:29.191Z,6.41
2023-01-30T10:16:29.145Z,6.29
2023-01-30T10:17:31.583Z,6.37
2023-01-30T10:18:29.170Z,6.07
2023-01-30T10:19:35.578Z,5.00
2023-01-30T10:20:30.254Z,5.76
2023-01-30T10:21:36.900Z,6.91
2023-01-30T10:22:29.171Z,6.50
2023-01-30T10:23:29.357Z,5.40
2023-01-30T10:24:29.160Z,4.21
2023-01-30T10:25:29.147Z,5.34
2023-01-30T10:26:29.098Z,5.94
2023-01-30T10:27:29.009Z,5.27
2023-01-30T10:28:28.966Z,4.92
2023-01-30T10:29:28.955Z,4.41
2023-01-30T10:30:28.926Z,5.41
2023-01-30T10:31:29.028Z,5.45
2023-01-30T10:32:28.843Z,5.55
2023-01-30T10:33:28.774Z,5.13
2023-01-30T10:34:28.989Z,4.46
2023-01-30T10:35:28.699Z,4.72
2023-01-30T10:36:28.787Z,4.65
2023-01-30T10:38:28.773Z,5.85
2023-01-30T10:39:28.623Z,4.91
2023-01-30T10:40:28.533Z,4.89
2023-01-30T10:41:28.660Z,5.25
2023-01-30T10:42:28.631Z,4.96
2023-01-30T10:43:28.824Z,6.28
2023-01-30T10:44:28.471Z,5.97
2023-01-30T10:45:29.160Z,5.83
2023-01-30T10:46:29.482Z,5.02
2023-01-30T10:47:34.757Z,4.30
2023-01-30T10:48:42.482Z,5.10
2023-01-30T10:49:29.305Z,5.19
2023-01-30T10:50:28.286Z,4.95
2023-01-30T10:51:28.337Z,5.65
2023-01-30T10:52:28.192Z,4.24
2023-01-30T10:53:28.192Z,4.07
2023-01-30T10:54:28.174Z,4.13
2023-01-30T10:55:36.794Z,6.48
2023-01-30T10:56:29.111Z,6.93
2023-01-30T10:57:28.334Z,8.56
2023-01-30T10:58:28.031Z,8.51
2023-01-30T10:59:27.987Z,8.20
2023-01-30T11:00:27.936Z,8.12
2023-01-30T11:01:27.919Z,9.54
2023-01-30T11:02:28.001Z,9.43
2023-01-30T11:03:27.840Z,8.37
2023-01-30T11:04:27.831Z,8.53
2023-01-30T11:05:27.768Z,9.71
2023-01-30T11:06:27.733Z,11.86
2023-01-30T11:07:27.720Z,13.68
2023-01-30T11:08:27.672Z,15.53
2023-01-30T11:09:28.068Z,13.22
2023-01-30T11:10:27.645Z,13.67
2023-01-30T11:11:27.560Z,11.05
2023-01-30T11:12:27.605Z,10.28
2023-01-30T11:13:27.565Z,10.15
2023-01-30T11:14:27.471Z,8.57
2023-01-30T11:15:27.423Z,9.10
2023-01-30T11:16:27.446Z,8.47
2023-01-30T11:17:27.373Z,10.85
2023-01-30T11:19:18.197Z,12.02
2023-01-30T11:19:28.547Z,10.87
2023-01-30T11:20:27.251Z,11.58
2023-01-30T11:21:38.517Z,9.62
2023-01-30T11:22:28.292Z,8.96
2023-01-30T11:23:27.172Z,6.31
2023-01-30T11:24:27.273Z,16.55
2023-01-30T11:25:27.131Z,13.89
2023-01-30T11:26:34.789Z,8.96
2023-01-30T11:27:29.004Z,12.67
2023-01-30T11:28:27.465Z,16.11
2023-01-30T11:29:26.944Z,9.12
2023-01-30T11:30:27.055Z,11.33
2023-01-30T11:31:40.311Z,14.50
2023-01-30T11:32:27.865Z,15.76
2023-01-30T11:33:26.810Z,12.72
2023-01-30T11:34:26.798Z,8.57
2023-01-30T11:35:26.743Z,8.53
2023-01-30T11:36:26.711Z,12.00
2023-01-30T11:37:26.691Z,13.19
2023-01-30T11:38:26.713Z,14.01
2023-01-30T11:39:26.724Z,15.08
2023-01-30T11:40:26.670Z,15.61
2023-01-30T11:41:26.602Z,11.75
2023-01-30T11:42:26.563Z,14.34
2023-01-30T11:43:26.548Z,13.18
2023-01-30T11:44:26.539Z,13.23
2023-01-30T11:45:26.556Z,14.17
2023-01-30T11:46:26.435Z,12.47
2023-01-30T11:47:26.400Z,11.50
2023-01-30T11:48:33.639Z,13.10
2023-01-30T11:49:49.253Z,9.01
2023-01-30T11:51:26.272Z,13.25
2023-01-30T11:52:26.263Z,11.33
2023-01-30T11:53:26.245Z,13.07
2023-01-30T11:54:26.186Z,10.90
2023-01-30T11:55:26.184Z,9.95
2023-01-30T11:56:26.148Z,12.19
2023-01-30T11:57:26.095Z,10.63
2023-01-30T11:58:26.103Z,10.49
2023-01-30T11:59:26.047Z,10.47
2023-01-30T12:00:26.597Z,10.15
2023-01-30T12:01:26.081Z,12.59
2023-01-30T12:02:26.173Z,9.94
2023-01-30T12:03:25.985Z,11.18
2023-01-30T12:05:25.999Z,10.03
2023-01-30T12:06:25.815Z,10.66
2023-01-30T12:07:25.828Z,8.43
2023-01-30T12:08:40.541Z,8.92
2023-01-30T12:09:26.737Z,7.69
2023-01-30T12:13:25.570Z,5.41
2023-01-30T12:14:25.642Z,7.04
2023-01-30T12:15:25.592Z,6.86
2023-01-30T12:16:25.848Z,7.05
2023-01-30T12:17:25.438Z,5.25
2023-01-30T12:18:25.413Z,4.23
2023-01-30T12:19:25.432Z,4.65
2023-01-30T12:28:25.129Z,3.57
2023-01-30T12:31:24.997Z,3.90
2023-01-30T12:32:24.940Z,3.78
2023-01-30T12:33:24.887Z,3.14
2023-01-30T13:09:23.442Z,3.80
2023-01-30T13:20:23.004Z,3.73
2023-01-30T13:21:22.954Z,3.68
2023-01-30T13:22:22.914Z,3.00
2023-01-30T13:23:22.902Z,3.09
2023-01-30T13:24:22.985Z,3.44
2023-01-30T13:25:22.933Z,2.83
2023-01-30T13:26:23.001Z,2.89
2023-01-30T13:27:22.924Z,2.71
2023-01-30T13:28:24.984Z,2.85
2023-01-30T13:29:22.886Z,2.42
2023-01-30T13:30:22.840Z,2.83
2023-01-30T13:31:22.924Z,3.18
2023-01-30T13:32:22.810Z,2.28
2023-01-30T13:33:22.669Z,2.54
2023-01-30T13:34:22.624Z,2.36
2023-01-30T13:35:22.617Z,3.33
2023-01-30T13:36:22.538Z,2.51
2023-01-30T13:37:22.500Z,3.15
2023-01-30T13:38:22.451Z,2.96
2023-01-30T13:39:22.400Z,3.25
2023-01-30T13:40:22.363Z,2.89
2023-01-30T13:41:22.258Z,3.56
2023-01-30T13:42:22.184Z,3.44
2023-01-30T13:43:22.123Z,3.54
2023-01-30T13:44:22.063Z,2.99
2023-01-30T13:45:21.973Z,3.46
2023-01-30T13:46:21.974Z,3.59
2023-01-30T13:47:22.087Z,2.97
2023-01-30T13:48:21.788Z,3.03
2023-01-30T13:49:21.729Z,3.61
2023-01-30T13:50:21.672Z,2.96
2023-01-30T13:51:21.597Z,2.94
2023-01-30T13:52:21.498Z,3.10
2023-01-30T13:53:21.410Z,3.01
2023-01-30T13:54:21.427Z,3.24
2023-01-30T13:55:21.368Z,2.85
2023-01-30T13:56:40.402Z,2.98
2023-01-30T13:57:22.157Z,2.77
2023-01-30T13:58:21.073Z,2.67
2023-01-30T13:59:20.995Z,3.69
2023-01-30T14:00:21.104Z,3.02
2023-01-30T14:01:20.797Z,3.19
2023-01-30T14:02:20.786Z,3.37
2023-01-30T14:03:20.649Z,3.29
2023-01-30T14:04:20.519Z,2.72
2023-01-30T15:01:15.685Z,2.21
